createdAt,value
2023-03-06T00:01:02.371Z,5.20
2023-03-06T00:04:08.204Z,5.45
2023-03-06T00:07:10.816Z,5.40
2023-03-06T00:10:26.017Z,4.65
2023-03-06T00:13:30.693Z,4.65
2023-03-06T00:16:34.045Z,5.37
2023-03-06T00:19:36.652Z,5.07
2023-03-06T00:22:40.636Z,5.68
2023-03-06T00:28:47.342Z,4.40
2023-03-06T00:31:52.512Z,4.95
2023-03-06T00:34:56.526Z,5.62
2023-03-06T00:37:59.895Z,4.80
2023-03-06T00:41:13.257Z,4.90
2023-03-06T00:44:15.926Z,4.90
2023-03-06T00:47:19.601Z,5.50
2023-03-06T00:50:22.478Z,4.78
2023-03-06T00:53:26.185Z,5.12
2023-03-06T00:56:30.055Z,5.40
2023-03-06T00:59:33.413Z,5.15
2023-03-06T01:02:36.209Z,5.62
2023-03-06T01:05:40.658Z,4.85
2023-03-06T01:08:43.310Z,5.47
2023-03-06T01:11:46.877Z,4.70
2023-03-06T01:14:49.489Z,5.25
2023-03-06T01:17:54.586Z,4.20
2023-03-06T01:20:57.208Z,5.80
2023-03-06T01:24:00.364Z,5.20
2023-03-06T01:27:04.480Z,4.70
2023-03-06T01:30:08.478Z,4.78
2023-03-06T01:36:14.393Z,4.68
2023-03-06T01:39:17.126Z,4.80
2023-03-06T01:42:20.374Z,5.90
2023-03-06T01:45:23.069Z,5.67
2023-03-06T01:48:26.563Z,4.80
2023-03-06T01:51:33.613Z,4.90
2023-03-06T01:54:44.544Z,5.12
2023-03-06T01:57:52.584Z,5.07
2023-03-06T02:00:55.915Z,4.28
2023-03-06T02:04:00.900Z,5.20
2023-03-06T02:07:06.614Z,5.00
2023-03-06T02:10:10.612Z,5.65
2023-03-06T02:13:13.553Z,5.03
2023-03-06T02:16:17.751Z,4.70
2023-03-06T02:19:58.207Z,5.05
2023-03-06T02:23:25.518Z,4.87
2023-03-06T02:26:30.025Z,4.87
2023-03-06T02:29:32.787Z,4.43
2023-03-06T02:32:36.542Z,4.75
2023-03-06T02:35:40.131Z,4.60
2023-03-06T02:38:48.897Z,4.30
2023-03-06T02:41:51.974Z,4.72
2023-03-06T02:44:59.346Z,4.87
2023-03-06T02:48:02.406Z,4.45
2023-03-06T02:51:05.852Z,4.28
2023-03-06T02:54:08.438Z,4.95
2023-03-06T02:57:12.351Z,4.57
2023-03-06T03:03:19.202Z,4.70
2023-03-06T03:06:21.840Z,4.28
2023-03-06T03:09:25.526Z,4.53
2023-03-06T03:12:28.782Z,4.78
2023-03-06T03:15:32.002Z,5.22
2023-03-06T03:18:34.985Z,4.90
2023-03-06T03:21:39.924Z,4.62
2023-03-06T03:24:42.655Z,5.03
2023-03-06T03:27:46.978Z,4.50
2023-03-06T03:30:49.846Z,4.53
2023-03-06T03:36:56.483Z,4.50
2023-03-06T03:39:59.894Z,4.45
2023-03-06T03:43:02.743Z,4.50
2023-03-06T03:46:06.217Z,4.72
2023-03-06T03:49:09.946Z,5.05
2023-03-06T03:52:13.561Z,4.70
2023-03-06T03:55:16.672Z,4.47
2023-03-06T03:58:20.213Z,4.32
2023-03-06T04:01:23.781Z,5.20
2023-03-06T04:07:29.538Z,5.28
2023-03-06T04:10:34.360Z,5.10
2023-03-06T04:13:37.467Z,5.47
2023-03-06T04:16:41.339Z,5.72
2023-03-06T04:19:44.565Z,5.32
2023-03-06T04:25:51.346Z,5.70
2023-03-06T04:28:56.251Z,5.90
2023-03-06T04:31:59.096Z,7.18
2023-03-06T04:35:02.718Z,6.62
2023-03-06T04:38:06.235Z,6.32
2023-03-06T04:41:09.528Z,6.47
2023-03-06T04:44:12.159Z,6.43
2023-03-06T04:47:16.952Z,6.82
2023-03-06T04:50:22.181Z,6.93
2023-03-06T04:53:25.930Z,6.28
2023-03-06T04:56:28.724Z,6.25
2023-03-06T04:59:31.842Z,7.32
2023-03-06T05:02:34.449Z,6.90
2023-03-06T05:05:37.622Z,6.78
2023-03-06T05:08:40.275Z,7.07
2023-03-06T05:11:43.475Z,7.35
2023-03-06T05:14:47.990Z,6.67
2023-03-06T05:17:51.417Z,7.40
2023-03-06T05:20:59.387Z,7.75
2023-03-06T05:24:02.536Z,7.55
2023-03-06T05:27:05.188Z,7.87
2023-03-06T05:30:12.292Z,7.07
2023-03-06T05:33:15.083Z,8.55
2023-03-06T05:36:18.231Z,8.00
2023-03-06T05:39:21.260Z,7.53
2023-03-06T05:45:26.735Z,14.13
2023-03-06T05:48:30.320Z,8.05
2023-03-06T05:51:32.929Z,8.77
2023-03-06T05:54:37.249Z,8.40
2023-03-06T05:57:40.015Z,8.02
2023-03-06T06:00:43.221Z,8.82
2023-03-06T06:03:47.973Z,7.82
2023-03-06T06:06:55.769Z,8.05
2023-03-06T06:09:58.813Z,8.13
2023-03-06T06:13:01.813Z,7.43
2023-03-06T06:16:11.890Z,7.53
2023-03-06T06:19:18.778Z,8.23
2023-03-06T06:22:21.811Z,7.57
2023-03-06T06:25:24.950Z,7.47
2023-03-06T06:28:29.352Z,8.57
2023-03-06T06:31:32.842Z,14.48
2023-03-06T06:37:41.434Z,9.05
2023-03-06T06:40:46.958Z,7.10
2023-03-06T06:44:04.272Z,14.10
2023-03-06T06:47:22.306Z,10.45
2023-03-06T06:50:28.376Z,8.80
2023-03-06T06:53:32.155Z,8.40
2023-03-06T06:56:36.201Z,8.80
2023-03-06T06:59:45.023Z,8.30
2023-03-06T07:02:51.267Z,9.27
2023-03-06T07:05:55.901Z,8.77
2023-03-06T07:08:58.795Z,9.02
2023-03-06T07:12:01.830Z,9.05
2023-03-06T07:15:07.092Z,9.60
2023-03-06T07:18:17.470Z,7.95
2023-03-06T07:21:20.354Z,9.80
2023-03-06T07:24:29.941Z,9.65
2023-03-06T07:27:34.767Z,9.45
2023-03-06T07:30:40.888Z,9.45
2023-03-06T07:33:43.744Z,9.20
2023-03-06T07:36:46.654Z,9.23
2023-03-06T07:39:49.753Z,9.55
2023-03-06T07:43:09.103Z,9.48
2023-03-06T07:49:20.355Z,8.77
2023-03-06T07:52:23.732Z,9.45
2023-03-06T07:58:32.195Z,8.57
2023-03-06T08:01:36.524Z,9.45
2023-03-06T08:04:42.207Z,9.93
2023-03-06T08:07:50.957Z,10.45
2023-03-06T08:10:54.205Z,10.25
2023-03-06T08:13:58.438Z,10.23
2023-03-06T08:17:03.227Z,10.32
2023-03-06T08:20:06.548Z,10.35
2023-03-06T08:23:10.885Z,9.95
2023-03-06T08:26:22.990Z,9.85
2023-03-06T08:29:26.864Z,9.48
2023-03-06T08:32:29.849Z,10.20
2023-03-06T08:35:33.246Z,10.48
2023-03-06T08:38:35.912Z,11.02
2023-03-06T08:41:42.176Z,10.93
2023-03-06T08:44:44.899Z,10.95
2023-03-06T08:47:48.021Z,10.48
2023-03-06T08:50:51.262Z,10.93
2023-03-06T08:53:55.511Z,10.65
2023-03-06T08:56:58.742Z,11.23
2023-03-06T09:00:01.873Z,10.77
2023-03-06T09:03:07.006Z,10.03
2023-03-06T09:06:16.334Z,11.00
2023-03-06T09:09:19.343Z,11.65
2023-03-06T09:12:40.384Z,11.02
2023-03-06T09:15:53.312Z,10.55
2023-03-06T09:18:59.075Z,11.00
2023-03-06T09:22:03.661Z,10.02
2023-03-06T09:25:07.285Z,10.88
2023-03-06T09:28:11.928Z,12.68
2023-03-06T09:31:18.655Z,10.95
2023-03-06T09:34:26.316Z,11.10
2023-03-06T09:37:30.093Z,12.75
2023-03-06T09:40:57.852Z,11.77
2023-03-06T09:44:05.250Z,10.73
2023-03-06T09:47:07.914Z,9.88
2023-03-06T09:53:48.908Z,10.00
2023-03-06T09:56:52.106Z,11.50
2023-03-06T09:59:57.339Z,11.10
2023-03-06T10:03:03.499Z,10.07
2023-03-06T10:06:28.045Z,11.02
2023-03-06T10:09:46.815Z,11.30
2023-03-06T10:13:06.444Z,11.40
2023-03-06T10:16:25.301Z,11.35
2023-03-06T10:19:41.255Z,12.10
2023-03-06T10:23:05.390Z,12.18
2023-03-06T10:26:15.152Z,12.20
2023-03-06T10:30:00.104Z,13.00
2023-03-06T10:33:21.910Z,12.77
2023-03-06T10:36:30.012Z,12.68
2023-03-06T10:39:32.925Z,12.32
2023-03-06T10:42:35.750Z,12.23
2023-03-06T10:45:54.022Z,12.27
2023-03-06T10:48:59.749Z,12.50
2023-03-06T10:52:02.655Z,12.35
2023-03-06T10:55:26.257Z,13.98
2023-03-06T10:58:31.920Z,13.45
2023-03-06T11:01:35.838Z,12.10
2023-03-06T11:04:40.947Z,13.05
2023-03-06T11:07:56.611Z,13.10
2023-03-06T11:11:11.511Z,12.82
2023-03-06T11:14:20.859Z,13.65
2023-03-06T11:17:29.636Z,13.57
2023-03-06T11:20:51.149Z,12.25
2023-03-06T11:24:00.786Z,12.40
2023-03-06T11:27:35.819Z,13.15
2023-03-06T11:30:50.788Z,15.32
2023-03-06T11:34:02.607Z,14.20
2023-03-06T11:37:36.595Z,12.77
2023-03-06T11:40:58.561Z,12.32
2023-03-06T11:44:25.257Z,14.05
2023-03-06T11:47:46.400Z,11.98
2023-03-06T11:50:52.621Z,13.70
2023-03-06T11:53:59.885Z,12.70
2023-03-06T11:57:12.577Z,13.07
2023-03-06T12:00:28.088Z,11.60
2023-03-06T12:03:52.889Z,13.32
2023-03-06T12:07:10.801Z,11.38
2023-03-06T12:10:29.937Z,12.05
2023-03-06T12:14:23.356Z,12.15
2023-03-06T12:17:50.335Z,12.75
2023-03-06T12:21:32.527Z,11.88
2023-03-06T12:24:53.743Z,12.07
2023-03-06T12:28:18.172Z,12.50
2023-03-06T12:31:30.018Z,13.25
2023-03-06T12:35:14.574Z,11.77
2023-03-06T12:38:29.561Z,12.32
2023-03-06T12:41:59.323Z,13.70
2023-03-06T12:45:30.964Z,12.65
2023-03-06T12:48:38.705Z,13.43
2023-03-06T12:51:44.586Z,12.30
2023-03-06T12:54:48.360Z,13.90
2023-03-06T12:57:51.487Z,12.60
2023-03-06T13:01:05.895Z,13.07
2023-03-06T13:04:40.042Z,13.25
2023-03-06T13:11:14.052Z,12.27
2023-03-06T13:14:26.529Z,12.93
2023-03-06T13:17:35.630Z,13.32
2023-03-06T13:20:45.025Z,13.70
2023-03-06T13:23:52.401Z,14.32
2023-03-06T13:27:04.868Z,14.25
2023-03-06T13:30:23.670Z,13.40
2023-03-06T13:33:27.251Z,14.80
2023-03-06T13:36:32.381Z,13.65
2023-03-06T13:39:55.110Z,14.55
2023-03-06T13:43:04.013Z,13.25
2023-03-06T13:46:26.423Z,13.65
2023-03-06T13:49:30.105Z,14.35
2023-03-06T13:52:43.749Z,14.48
2023-03-06T14:00:03.022Z,14.50
2023-03-06T14:03:41.387Z,13.93
2023-03-06T14:10:08.712Z,13.98
2023-03-06T14:13:23.441Z,15.25
2023-03-06T14:16:40.491Z,15.15
2023-03-06T14:19:51.915Z,14.82
2023-03-06T14:23:32.377Z,15.23
2023-03-06T14:26:43.910Z,15.45
2023-03-06T14:29:48.704Z,15.35
2023-03-06T14:32:54.744Z,15.13
2023-03-06T14:36:03.714Z,15.32
2023-03-06T14:39:35.350Z,16.05
2023-03-06T14:42:38.388Z,14.43
2023-03-06T14:45:53.202Z,15.52
2023-03-06T14:48:59.073Z,15.38
2023-03-06T14:52:02.357Z,14.60
2023-03-06T14:55:11.662Z,15.07
2023-03-06T14:58:19.976Z,14.20
2023-03-06T15:01:29.624Z,14.82
2023-03-06T15:04:40.799Z,14.87
2023-03-06T15:07:45.179Z,14.95
2023-03-06T15:10:59.570Z,15.05
2023-03-06T15:14:04.992Z,15.50
2023-03-06T15:17:20.006Z,15.05
2023-03-06T15:20:42.560Z,18.27
2023-03-06T15:23:47.977Z,15.35
2023-03-06T15:26:55.270Z,16.48
2023-03-06T15:30:30.410Z,16.08
2023-03-06T15:33:33.412Z,26.60
2023-03-06T15:37:00.844Z,19.92
2023-03-06T15:40:09.413Z,16.92
2023-03-06T15:43:12.393Z,15.43
2023-03-06T15:46:15.282Z,14.50
2023-03-06T15:49:20.599Z,15.52
2023-03-06T15:52:23.775Z,14.30
2023-03-06T15:55:27.113Z,15.02
2023-03-06T16:01:37.427Z,15.23
2023-03-06T16:04:40.464Z,15.05
2023-03-06T16:07:43.833Z,16.92
2023-03-06T16:10:47.893Z,21.42
2023-03-06T16:13:51.553Z,14.15
2023-03-06T16:16:55.045Z,13.23
2023-03-06T16:19:58.110Z,13.95
2023-03-06T16:23:01.208Z,32.15
2023-03-06T16:26:04.472Z,15.35
2023-03-06T16:29:08.428Z,13.13
2023-03-06T16:32:11.724Z,13.52
2023-03-06T16:35:15.713Z,12.73
2023-03-06T16:38:18.623Z,12.98
2023-03-06T16:41:21.718Z,14.27
2023-03-06T16:44:24.610Z,13.35
2023-03-06T16:47:27.508Z,13.18
2023-03-06T16:50:33.576Z,14.45
2023-03-06T16:53:36.441Z,12.88
2023-03-06T16:56:39.319Z,12.82
2023-03-06T16:59:42.131Z,13.40
2023-03-06T17:02:47.896Z,13.43
2023-03-06T17:05:51.097Z,13.25
2023-03-06T17:08:54.285Z,12.73
2023-03-06T17:11:57.479Z,15.45
2023-03-06T17:15:00.406Z,14.60
2023-03-06T17:18:05.152Z,14.05
2023-03-06T17:21:09.055Z,13.52
2023-03-06T17:24:11.877Z,14.10
2023-03-06T17:27:14.739Z,13.85
2023-03-06T17:30:17.758Z,14.05
2023-03-06T17:33:20.624Z,14.65
2023-03-06T17:36:23.484Z,14.85
2023-03-06T17:39:26.337Z,15.57
2023-03-06T17:42:29.386Z,15.13
2023-03-06T17:45:34.221Z,16.15
2023-03-06T17:48:37.736Z,14.30
2023-03-06T17:51:40.708Z,15.68
2023-03-06T17:54:43.583Z,15.18
2023-03-06T17:57:46.398Z,14.93
2023-03-06T18:00:49.664Z,14.57
2023-03-06T18:03:53.114Z,15.82
2023-03-06T18:06:57.070Z,17.48
2023-03-06T18:10:00.246Z,15.85
2023-03-06T18:13:02.910Z,14.52
2023-03-06T18:16:08.083Z,14.60
2023-03-06T18:19:11.365Z,15.85
2023-03-06T18:22:18.604Z,14.90
2023-03-06T18:29:04.161Z,15.48
2023-03-06T18:32:10.846Z,15.48
2023-03-06T18:35:13.999Z,16.55
2023-03-06T18:38:18.821Z,19.45
2023-03-06T18:41:22.618Z,19.55
2023-03-06T18:44:27.829Z,17.05
2023-03-06T18:47:33.761Z,16.35
2023-03-06T18:50:37.618Z,16.15
2023-03-06T18:53:41.173Z,15.52
2023-03-06T18:59:48.516Z,14.77
2023-03-06T19:02:52.122Z,14.90
2023-03-06T19:05:56.101Z,16.20
2023-03-06T19:09:01.803Z,16.35
2023-03-06T19:12:07.228Z,16.10
2023-03-06T19:15:10.543Z,15.60
2023-03-06T19:18:16.290Z,15.93
2023-03-06T19:21:22.061Z,14.45
2023-03-06T19:24:26.746Z,17.42
2023-03-06T19:27:30.184Z,15.20
2023-03-06T19:33:39.292Z,17.33
2023-03-06T19:36:42.147Z,15.95
2023-03-06T19:39:45.084Z,16.87
2023-03-06T19:42:48.587Z,15.90
2023-03-06T19:45:51.533Z,17.48
2023-03-06T19:49:03.349Z,17.27
2023-03-06T19:52:09.211Z,17.75
2023-03-06T19:55:14.671Z,17.35
2023-03-06T19:58:20.303Z,16.95
2023-03-06T20:01:28.486Z,17.50
2023-03-06T20:04:34.302Z,19.23
2023-03-06T20:07:41.040Z,19.67
2023-03-06T20:10:44.178Z,18.05
2023-03-06T20:13:49.782Z,18.48
2023-03-06T20:16:52.962Z,19.05
2023-03-06T20:19:56.581Z,19.12
2023-03-06T20:23:04.766Z,19.17
2023-03-06T20:26:16.158Z,19.02
2023-03-06T20:32:23.749Z,19.52
2023-03-06T20:35:31.857Z,19.00
2023-03-06T20:38:37.174Z,19.83
2023-03-06T20:41:42.277Z,18.50
2023-03-06T20:44:48.163Z,18.65
2023-03-06T20:47:56.207Z,18.98
2023-03-06T20:51:04.486Z,18.10
2023-03-06T20:54:14.957Z,17.95
2023-03-06T20:57:20.245Z,18.83
2023-03-06T21:00:33.312Z,17.80
2023-03-06T21:03:37.361Z,19.25
2023-03-06T21:06:47.036Z,18.12
2023-03-06T21:09:54.896Z,20.50
2023-03-06T21:13:01.336Z,24.33
2023-03-06T21:16:17.146Z,31.33
2023-03-06T21:19:31.231Z,18.58
2023-03-06T21:22:35.558Z,19.70
2023-03-06T21:25:52.428Z,19.65
2023-03-06T21:32:02.104Z,19.50
2023-03-06T21:35:05.428Z,19.45
2023-03-06T21:38:08.494Z,20.88
2023-03-06T21:41:24.810Z,19.85
2023-03-06T21:44:33.529Z,19.52
2023-03-06T21:47:39.026Z,20.20
2023-03-06T21:50:42.732Z,18.73
2023-03-06T21:56:49.594Z,18.02
2023-03-06T21:59:52.546Z,22.13
2023-03-06T22:02:55.521Z,19.65
2023-03-06T22:06:10.162Z,21.50
2023-03-06T22:09:15.000Z,19.33
2023-03-06T22:12:18.270Z,19.48
2023-03-06T22:15:21.920Z,21.43
2023-03-06T22:18:25.167Z,20.90
2023-03-06T22:21:27.814Z,19.83
2023-03-06T22:24:31.990Z,21.42
2023-03-06T22:30:37.607Z,20.95
2023-03-06T22:33:40.812Z,19.50
2023-03-06T22:36:44.492Z,21.42
2023-03-06T22:39:48.065Z,20.73
2023-03-06T22:42:51.295Z,21.02
2023-03-06T22:45:54.409Z,20.45
2023-03-06T22:52:01.988Z,19.90
2023-03-06T22:55:06.012Z,21.37
2023-03-06T22:58:09.973Z,20.15
2023-03-06T23:01:29.174Z,21.27
2023-03-06T23:04:31.939Z,20.27
2023-03-06T23:07:39.974Z,20.92
2023-03-06T23:10:42.574Z,20.30
2023-03-06T23:14:05.920Z,21.17
2023-03-06T23:17:27.474Z,21.50
2023-03-06T23:20:49.150Z,21.25
2023-03-06T23:24:10.395Z,19.27
2023-03-06T23:27:15.696Z,22.58
2023-03-06T23:30:18.764Z,21.77
2023-03-06T23:33:22.057Z,20.83
2023-03-06T23:36:24.960Z,22.02
2023-03-06T23:42:30.848Z,21.25
2023-03-06T23:45:34.009Z,21.75
2023-03-06T23:48:38.589Z,22.63
2023-03-06T23:51:41.860Z,22.98
2023-03-06T23:54:44.417Z,22.50
2023-03-06T23:57:47.784Z,22.80
